Time;durP1;ratioP1;P1;durP2;ratioP2;P2;SDS_P1;SDS_P2;PMS_P1;PMS_P2;Temp;Humidity;BMP_temperature;BMP_pressure;BME280_temperature;BME280_humidity;BME280_pressure;Samples;Min_cycle;Max_cycle;Signal;HPM_P1;HPM_P2
2021/07/09 00:01:15;;;;;;;4.63;3.13;;;16.60;99.90;;;;;;5070214;28;20175;-77
2021/07/09 00:03:41;;;;;;;4.80;3.25;;;17.90;99.90;;;;;;5065749;28;20102;-76
2021/07/09 00:06:08;;;;;;;8.52;3.28;;;16.50;99.90;;;;;;5069581;28;20042;-77
2021/07/09 00:08:34;;;;;;;5.90;3.55;;;;;;;;;;5073979;28;20039;-77
2021/07/09 00:11:00;;;;;;;4.88;3.08;;;16.50;99.90;;;;;;5070127;28;20034;-77
2021/07/09 00:13:26;;;;;;;38.42;12.80;;;;;;;;;;5078191;28;20032;-77
2021/07/09 00:15:52;;;;;;;9.93;3.97;;;16.50;99.90;;;;;;5066135;28;20050;-77
2021/07/09 00:18:18;;;;;;;15.27;5.97;;;;;;;;;;5073585;28;20032;-77
2021/07/09 00:20:44;;;;;;;7.90;3.75;;;;;;;;;;5068906;28;20500;-77
2021/07/09 00:23:14;;;;;;;8.05;3.70;;;16.30;99.90;;;;;;5067614;28;20648;-76
2021/07/09 00:25:40;;;;;;;4.93;3.20;;;;;;;;;;5080286;28;20028;-77
2021/07/09 00:28:05;;;;;;;5.18;3.05;;;16.30;99.90;;;;;;5076360;28;20043;-77
2021/07/09 00:30:31;;;;;;;5.80;3.30;;;20.50;99.90;;;;;;5069827;28;20048;-77
2021/07/09 00:32:57;;;;;;;6.93;3.67;;;;;;;;;;5063273;28;20055;-77
2021/07/09 00:35:23;;;;;;;5.20;3.35;;;;;;;;;;5077429;28;22161;-77
2021/07/09 00:37:49;;;;;;;5.65;2.92;;;;;;;;;;5067171;28;20056;-77
2021/07/09 00:40:16;;;;;;;4.65;2.90;;;16.00;99.90;;;;;;5067436;28;20036;-78
2021/07/09 00:42:42;;;;;;;4.57;2.90;;;;;;;;;;5073468;28;20505;-77
2021/07/09 00:45:09;;;;;;;6.03;3.42;;;16.20;99.90;;;;;;5071841;28;20087;-77
2021/07/09 00:47:35;;;;;;;5.32;3.22;;;;;;;;;;5073506;28;20033;-77
2021/07/09 00:50:01;;;;;;;5.18;3.17;;;;;;;;;;5066884;28;20043;-77
2021/07/09 00:52:27;;;;;;;7.72;3.08;;;;;;;;;;5069758;28;20551;-76
2021/07/09 00:54:53;;;;;;;5.55;2.90;;;16.20;99.90;;;;;;5076754;28;20024;-77
2021/07/09 00:57:18;;;;;;;6.07;2.92;;;16.20;99.90;;;;;;5070167;28;20028;-76
2021/07/09 00:59:44;;;;;;;4.57;2.65;;;16.20;99.90;;;;;;5077932;28;20031;-77
2021/07/09 01:02:11;;;;;;;4.68;2.95;;;;;;;;;;5059105;28;20485;-77
2021/07/09 01:04:36;;;;;;;5.28;2.80;;;16.20;99.90;;;;;;5072155;28;20046;-77
2021/07/09 01:07:05;;;;;;;3.90;2.53;;;16.20;99.90;;;;;;5063577;28;20032;-77
2021/07/09 01:09:31;;;;;;;4.90;3.20;;;;;;;;;;5075458;28;20158;-77
2021/07/09 01:12:00;;;;;;;5.07;3.00;;;16.20;99.90;;;;;;5064127;28;20028;-77
2021/07/09 01:14:26;;;;;;;5.20;2.83;;;;;;;;;;5065695;28;20106;-77
2021/07/09 01:16:52;;;;;;;6.10;2.97;;;;;;;;;;5071244;28;20036;-78
2021/07/09 01:19:19;;;;;;;4.55;3.28;;;16.10;99.90;;;;;;5070401;28;20163;-78
2021/07/09 01:21:45;;;;;;;6.07;2.80;;;16.10;99.90;;;;;;5069231;28;20056;-77
2021/07/09 01:24:12;;;;;;;6.30;3.03;;;16.10;99.90;;;;;;5072845;28;20024;-77
2021/07/09 01:26:39;;;;;;;4.50;2.90;;;16.00;99.90;;;;;;5065642;28;20474;-78
2021/07/09 01:29:06;;;;;;;5.30;3.00;;;16.00;99.90;;;;;;5068809;28;20025;-76
2021/07/09 01:31:33;;;;;;;4.38;2.75;;;16.00;99.90;;;;;;5070860;28;20039;-77
2021/07/09 01:33:59;;;;;;;5.53;2.92;;;;;;;;;;5064555;28;20017;-77
2021/07/09 01:36:25;;;;;;;4.35;2.60;;;;;;;;;;5061960;28;20398;-77
2021/07/09 01:38:51;;;;;;;7.32;3.00;;;;;;;;;;5074985;28;20036;-77
2021/07/09 01:41:19;;;;;;;5.32;2.90;;;16.00;99.90;;;;;;5070522;28;20075;-77
2021/07/09 01:43:45;;;;;;;9.98;2.75;;;16.00;99.90;;;;;;5076506;28;20024;-78
2021/07/09 01:46:11;;;;;;;3.45;2.60;;;;;;;;;;5071910;28;20036;-77
2021/07/09 01:48:37;;;;;;;3.65;2.70;;;;;;;;;;5066357;28;20036;-77
2021/07/09 01:51:04;;;;;;;4.95;2.80;;;16.00;99.90;;;;;;5066325;28;20034;-78
2021/07/09 01:53:30;;;;;;;3.75;2.60;;;15.90;99.90;;;;;;5066733;28;20025;-77
2021/07/09 01:55:57;;;;;;;4.50;2.90;;;;;;;;;;5068369;28;20044;-76
2021/07/09 01:58:22;;;;;;;6.32;3.22;;;15.90;99.90;;;;;;5065248;28;20033;-77
2021/07/09 02:00:48;;;;;;;4.78;2.70;;;;;;;;;;5071184;28;20934;-77
2021/07/09 02:03:14;;;;;;;5.55;2.70;;;;;;;;;;5061375;28;20025;-76
2021/07/09 02:05:41;;;;;;;7.55;3.10;;;;;;;;;;5067405;28;20117;-77
2021/07/09 02:08:07;;;;;;;6.68;2.95;;;;;;;;;;5071732;28;20044;-76
2021/07/09 02:10:36;;;;;;;3.85;2.70;;;15.80;99.90;;;;;;5071660;28;20032;-77
2021/07/09 02:13:03;;;;;;;5.07;2.90;;;19.30;99.90;;;;;;5073510;28;20031;-76
2021/07/09 02:15:34;;;;;;;4.47;2.90;;;15.70;99.90;;;;;;5074615;28;20036;-76
2021/07/09 02:18:01;;;;;;;5.35;2.50;;;;;;;;;;5083914;28;20032;-74
2021/07/09 02:20:28;;;;;;;4.53;2.92;;;15.70;99.90;;;;;;5073877;28;20248;-78
2021/07/09 02:22:57;;;;;;;5.75;2.88;;;;;;;;;;5072938;28;20055;-77
2021/07/09 02:25:23;;;;;;;7.03;2.97;;;;;;;;;;5078801;28;20032;-77
2021/07/09 02:27:50;;;;;;;4.68;2.80;;;15.70;99.90;;;;;;5077367;28;20062;-75
2021/07/09 02:30:18;;;;;;;6.07;3.10;;;15.60;99.90;;;;;;5071422;28;20115;-76
2021/07/09 02:32:45;;;;;;;6.38;3.00;;;15.60;99.90;;;;;;5075242;28;20038;-78
2021/07/09 02:35:16;;;;;;;5.35;3.58;;;19.20;99.90;;;;;;5078071;28;20111;-77
2021/07/09 02:37:43;;;;;;;7.18;3.00;;;;;;;;;;5070252;28;20028;-77
2021/07/09 02:40:14;;;;;;;7.28;3.38;;;15.50;99.90;;;;;;5076741;28;20020;-78
2021/07/09 02:42:45;;;;;;;6.35;2.55;;;15.60;99.90;;;;;;5076669;28;20024;-77
2021/07/09 02:45:11;;;;;;;4.55;3.10;;;15.50;99.90;;;;;;5075462;28;20042;-76
2021/07/09 02:47:38;;;;;;;5.15;2.95;;;15.50;99.90;;;;;;5076847;28;20050;-75
2021/07/09 02:50:09;;;;;;;5.60;2.72;;;15.50;99.90;;;;;;5072228;28;20059;-79
2021/07/09 02:52:35;;;;;;;7.30;3.20;;;15.50;99.90;;;;;;5068381;28;20033;-77
2021/07/09 02:55:01;;;;;;;7.03;2.70;;;;;;;;;;5073545;28;20031;-77
2021/07/09 02:57:27;;;;;;;4.50;2.95;;;;;;;;;;5074428;28;20040;-76
2021/07/09 02:59:53;;;;;;;4.25;2.97;;;;;;;;;;5065760;28;20020;-77
2021/07/09 03:02:19;;;;;;;6.43;2.95;;;;;;;;;;5067277;28;20428;-77
2021/07/09 03:04:45;;;;;;;5.93;2.95;;;;;;;;;;5080834;28;20024;-77
2021/07/09 03:07:11;;;;;;;7.13;3.10;;;15.50;99.90;;;;;;5070405;28;20028;-77
2021/07/09 03:09:36;;;;;;;4.32;2.63;;;15.50;99.90;;;;;;5071483;28;20029;-77
2021/07/09 03:12:03;;;;;;;7.53;3.05;;;15.40;99.90;;;;;;5071087;28;20037;-77
2021/07/09 03:14:28;;;;;;;4.25;2.80;;;15.40;99.90;;;;;;5074549;28;20024;-78
2021/07/09 03:16:54;;;;;;;11.38;4.35;;;;;;;;;;5069922;28;20397;-77
2021/07/09 03:19:20;;;;;;;5.82;3.15;;;15.40;99.90;;;;;;5071664;28;20084;-78
2021/07/09 03:21:46;;;;;;;6.20;2.65;;;;;;;;;;5069706;28;20029;-78
2021/07/09 03:24:12;;;;;;;5.68;2.90;;;;;;;;;;5068040;28;20032;-78
2021/07/09 03:26:38;;;;;;;4.85;3.10;;;;;;;;;;5074718;28;20058;-80
2021/07/09 03:29:04;;;;;;;6.45;2.65;;;;;;;;;;5070594;28;20116;-78
2021/07/09 03:31:31;;;;;;;7.20;3.10;;;15.30;99.90;;;;;;5074239;28;21039;-78
2021/07/09 03:33:57;;;;;;;4.50;3.15;;;;;;;;;;5070148;28;20032;-80
2021/07/09 03:36:24;;;;;;;3.80;3.03;;;;;;;;;;5073778;28;20061;-79
2021/07/09 03:38:51;;;;;;;4.85;2.95;;;;;;;;;;5077377;28;20032;-76
2021/07/09 03:41:17;;;;;;;8.60;3.15;;;;;;;;;;5069659;28;20021;-78
2021/07/09 03:43:44;;;;;;;5.10;3.15;;;15.30;99.90;;;;;;5069464;28;20470;-78
2021/07/09 03:46:10;;;;;;;5.88;3.00;;;;;;;;;;5078553;28;20500;-78
2021/07/09 03:48:35;;;;;;;4.30;3.13;;;15.30;99.90;;;;;;5070844;28;20056;-77
2021/07/09 03:51:01;;;;;;;6.43;3.10;;;;;;;;;;5074286;28;20036;-79
2021/07/09 03:53:27;;;;;;;5.63;3.00;;;;;;;;;;5084791;28;20053;-79
2021/07/09 03:55:54;;;;;;;4.15;2.90;;;;;;;;;;5070820;28;20090;-79
2021/07/09 03:58:20;;;;;;;5.72;3.10;;;;;;;;;;5076728;28;20051;-79
2021/07/09 04:00:45;;;;;;;5.35;2.88;;;;;;;;;;5063048;28;20062;-78
2021/07/09 04:03:11;;;;;;;5.70;3.03;;;15.30;99.90;;;;;;5073443;28;20021;-78
2021/07/09 04:05:37;;;;;;;5.38;2.70;;;15.30;99.90;;;;;;5076185;28;20028;-79
2021/07/09 04:08:03;;;;;;;4.15;2.80;;;15.30;99.90;;;;;;5067291;28;20037;-78
2021/07/09 04:10:29;;;;;;;5.80;2.97;;;;;;;;;;5071043;28;20105;-78
2021/07/09 04:12:55;;;;;;;4.43;3.22;;;15.30;99.90;;;;;;5072382;28;20032;-79
2021/07/09 04:15:21;;;;;;;4.70;2.83;;;;;;;;;;5069152;28;20029;-79
2021/07/09 04:17:47;;;;;;;5.72;3.45;;;15.30;99.90;;;;;;5071030;28;20025;-81
2021/07/09 04:20:13;;;;;;;8.15;3.42;;;15.30;99.90;;;;;;5075060;28;20111;-79
2021/07/09 04:22:39;;;;;;;4.93;3.30;;;15.40;99.90;;;;;;5075927;28;20038;-80
2021/07/09 04:25:08;;;;;;;7.25;3.58;;;15.30;99.90;;;;;;5073551;28;20049;-79
2021/07/09 04:27:35;;;;;;;5.45;3.40;;;15.30;99.90;;;;;;5075074;28;20036;-80
2021/07/09 04:30:01;;;;;;;6.53;3.17;;;15.30;99.90;;;;;;5071305;28;20059;-79
2021/07/09 04:32:27;;;;;;;6.18;3.47;;;15.40;99.90;;;;;;5067326;28;20048;-80
2021/07/09 04:34:53;;;;;;;6.07;2.90;;;;;;;;;;5071827;28;20388;-80
2021/07/09 04:37:19;;;;;;;7.07;3.20;;;;;;;;;;5076930;28;20029;-80
2021/07/09 04:39:45;;;;;;;6.85;3.47;;;;;;;;;;5075068;28;20483;-81
2021/07/09 04:42:11;;;;;;;5.78;3.58;;;;;;;;;;5077149;28;20043;-81
2021/07/09 04:44:38;;;;;;;5.55;3.33;;;15.40;99.90;;;;;;5078796;28;20109;-80
2021/07/09 04:47:04;;;;;;;6.82;3.05;;;16.70;99.90;;;;;;5073134;28;20025;-81
2021/07/09 04:49:30;;;;;;;5.68;3.80;;;15.40;99.90;;;;;;5064161;28;20021;-79
2021/07/09 04:51:55;;;;;;;6.78;3.60;;;15.40;99.90;;;;;;5071764;28;20303;-80
2021/07/09 04:54:21;;;;;;;5.40;3.20;;;16.70;99.90;;;;;;5070749;28;20425;-79
2021/07/09 04:56:47;;;;;;;6.95;3.92;;;15.30;99.90;;;;;;5074060;28;20031;-79
2021/07/09 04:59:13;;;;;;;5.82;3.38;;;15.40;99.90;;;;;;5075440;28;20028;-80
2021/07/09 05:01:39;;;;;;;7.15;3.70;;;;;;;;;;5076631;28;20023;-78
2021/07/09 05:04:06;;;;;;;6.85;3.78;;;15.40;99.90;;;;;;5074086;28;20413;-77
2021/07/09 05:06:32;;;;;;;9.35;3.80;;;17.30;99.90;;;;;;5073223;28;20094;-79
2021/07/09 05:08:58;;;;;;;6.43;3.83;;;15.40;99.90;;;;;;5066690;28;20031;-79
2021/07/09 05:11:24;;;;;;;5.97;3.83;;;15.50;99.90;;;;;;5071540;28;20021;-78
2021/07/09 05:13:49;;;;;;;8.75;4.13;;;15.80;99.90;;;;;;5067725;28;20080;-76
2021/07/09 05:16:15;;;;;;;7.82;3.47;;;15.60;99.90;;;;;;5056932;28;20032;-76
2021/07/09 05:18:40;;;;;;;5.68;3.60;;;15.60;99.90;;;;;;5064310;28;20028;-77
2021/07/09 05:21:06;;;;;;;6.20;3.90;;;15.60;99.90;;;;;;5067106;28;20059;-77
2021/07/09 05:23:32;;;;;;;6.78;3.50;;;15.70;99.90;;;;;;5073148;28;20119;-80
2021/07/09 05:25:57;;;;;;;5.82;3.42;;;15.80;99.90;;;;;;5066743;28;20032;-77
2021/07/09 05:28:23;;;;;;;5.13;3.13;;;15.80;99.90;;;;;;5063803;28;20036;-77
2021/07/09 05:30:49;;;;;;;4.50;2.90;;;16.40;99.90;;;;;;5064009;28;20029;-78
2021/07/09 05:33:15;;;;;;;7.32;2.60;;;17.30;99.90;;;;;;5066103;28;20024;-79
2021/07/09 05:35:43;;;;;;;4.97;2.65;;;18.20;99.90;;;;;;5071911;28;20035;-79
2021/07/09 05:38:09;;;;;;;4.43;2.92;;;19.00;99.90;;;;;;5073646;28;20054;-79
2021/07/09 05:40:35;;;;;;;4.97;2.40;;;19.30;99.90;;;;;;5071469;28;20020;-79
2021/07/09 05:43:03;;;;;;;5.38;2.92;;;19.60;99.90;;;;;;5069427;28;20394;-78
2021/07/09 05:45:30;;;;;;;5.32;2.50;;;19.90;99.90;;;;;;5066650;28;20028;-78
2021/07/09 05:47:56;;;;;;;3.70;2.33;;;22.30;99.90;;;;;;5063137;28;20044;-79
2021/07/09 05:50:26;;;;;;;6.13;2.65;;;;;;;;;;5067344;28;20034;-79
2021/07/09 05:52:54;;;;;;;5.72;2.90;;;20.50;99.90;;;;;;5065841;28;20044;-79
2021/07/09 05:55:20;;;;;;;4.90;2.50;;;;;;;;;;5067420;28;20620;-79
2021/07/09 05:57:46;;;;;;;5.18;2.72;;;20.80;99.70;;;;;;5064251;28;20039;-79
2021/07/09 06:00:12;;;;;;;6.28;2.78;;;20.90;99.30;;;;;;5066164;28;20350;-78
2021/07/09 06:02:38;;;;;;;4.53;2.78;;;20.60;99.60;;;;;;5071254;28;20024;-79
2021/07/09 06:05:08;;;;;;;6.40;3.03;;;20.80;99.40;;;;;;5071150;28;20021;-77
2021/07/09 06:07:33;;;;;;;10.88;3.38;;;20.50;99.70;;;;;;5066442;28;20033;-78
2021/07/09 06:09:59;;;;;;;5.32;3.17;;;20.50;99.90;;;;;;5075281;28;20078;-79
2021/07/09 06:12:25;;;;;;;5.78;3.08;;;21.20;98.60;;;;;;5066714;28;20020;-78
2021/07/09 06:14:51;;;;;;;5.90;3.00;;;21.10;99.10;;;;;;5068649;28;20036;-79
2021/07/09 06:17:20;;;;;;;5.45;2.92;;;21.00;99.10;;;;;;5059364;28;20356;-78
2021/07/09 06:19:45;;;;;;;8.33;3.40;;;21.40;98.70;;;;;;5072402;28;20027;-79
2021/07/09 06:22:11;;;;;;;6.72;3.50;;;21.50;98.00;;;;;;5067588;28;20036;-78
2021/07/09 06:24:37;;;;;;;5.38;3.35;;;21.30;98.10;;;;;;5070840;28;20013;-78
2021/07/09 06:27:03;;;;;;;6.65;3.67;;;22.50;98.40;;;;;;5067930;28;20031;-79
2021/07/09 06:29:29;;;;;;;6.93;3.50;;;;;;;;;;5068682;28;20049;-79
2021/07/09 06:31:55;;;;;;;6.65;3.78;;;21.00;98.80;;;;;;5063424;28;20033;-79
2021/07/09 06:34:21;;;;;;;5.72;4.03;;;21.10;99.00;;;;;;5075551;28;20044;-81
2021/07/09 06:36:46;;;;;;;8.10;4.50;;;20.80;99.20;;;;;;5081417;28;20032;-79
2021/07/09 06:39:12;;;;;;;9.48;3.72;;;21.70;99.60;;;;;;5073257;28;20047;-80
2021/07/09 06:41:38;;;;;;;9.63;3.70;;;21.10;99.90;;;;;;5065003;28;20021;-78
2021/07/09 06:44:04;;;;;;;7.75;3.80;;;20.30;99.90;;;;;;5073388;28;20029;-80
2021/07/09 06:46:29;;;;;;;8.63;4.07;;;20.10;99.90;;;;;;5087417;28;20021;-79
2021/07/09 06:48:55;;;;;;;6.10;4.03;;;20.10;99.90;;;;;;5069977;28;20075;-80
2021/07/09 06:51:21;;;;;;;6.55;4.13;;;20.10;99.90;;;;;;5070994;28;20037;-77
2021/07/09 06:53:50;;;;;;;10.02;4.30;;;;;;;;;;5071556;28;20031;-78
2021/07/09 06:56:16;;;;;;;5.18;3.72;;;;;;;;;;5074380;28;20110;-79
2021/07/09 06:58:42;;;;;;;6.88;4.28;;;20.20;99.90;;;;;;5068211;28;20074;-77
2021/07/09 07:01:08;;;;;;;5.50;3.83;;;20.00;99.90;;;;;;5069851;28;20032;-79
2021/07/09 07:03:34;;;;;;;8.23;3.90;;;20.00;99.90;;;;;;5068995;28;20029;-80
2021/07/09 07:06:00;;;;;;;7.55;4.25;;;20.00;99.90;;;;;;5074341;28;20025;-81
2021/07/09 07:08:26;;;;;;;8.15;4.38;;;20.80;99.90;;;;;;5066347;28;20025;-80
2021/07/09 07:10:53;;;;;;;6.88;4.40;;;;;;;;;;5076509;28;20097;-80
2021/07/09 07:13:19;;;;;;;7.22;4.30;;;20.00;99.90;;;;;;5070551;28;20016;-79
2021/07/09 07:15:45;;;;;;;7.57;4.57;;;;;;;;;;5073366;28;20025;-79
2021/07/09 07:18:12;;;;;;;7.88;4.20;;;;;;;;;;5074523;28;20035;-77
2021/07/09 07:20:42;;;;;;;8.32;4.47;;;20.10;99.90;;;;;;5066048;28;20076;-79
2021/07/09 07:23:15;;;;;;;10.15;4.97;;;21.30;99.90;;;;;;5063208;28;20166;-79
2021/07/09 07:25:41;;;;;;;8.70;4.57;;;20.20;99.90;;;;;;5067451;28;20371;-79
2021/07/09 07:28:07;;;;;;;9.77;4.85;;;20.10;99.90;;;;;;5068775;28;20037;-77
2021/07/09 07:30:34;;;;;;;8.48;4.47;;;20.20;99.90;;;;;;5073776;28;20029;-79
2021/07/09 07:33:00;;;;;;;7.57;4.70;;;20.10;99.90;;;;;;5067801;28;20028;-79
2021/07/09 07:35:26;;;;;;;10.63;4.95;;;20.50;99.90;;;;;;5074884;28;20028;-80
2021/07/09 07:37:52;;;;;;;8.40;4.72;;;20.20;99.90;;;;;;5070766;28;20041;-77
2021/07/09 07:40:19;;;;;;;6.82;4.32;;;21.00;99.90;;;;;;5063529;28;20021;-80
2021/07/09 07:42:45;;;;;;;10.25;4.80;;;20.20;99.90;;;;;;5067311;28;20398;-79
2021/07/09 07:45:11;;;;;;;9.20;5.50;;;20.20;99.90;;;;;;5067624;28;20167;-79
2021/07/09 07:47:37;;;;;;;9.48;5.40;;;20.20;99.90;;;;;;5071145;28;20036;-79
2021/07/09 07:50:04;;;;;;;8.68;4.45;;;20.30;99.90;;;;;;5070808;28;20020;-79
2021/07/09 07:52:29;;;;;;;9.32;5.25;;;20.50;99.90;;;;;;5072717;28;20098;-77
2021/07/09 07:54:55;;;;;;;9.85;5.50;;;20.40;99.90;;;;;;5071203;28;20060;-79
2021/07/09 07:57:21;;;;;;;8.35;5.05;;;20.60;99.90;;;;;;5074715;28;20028;-80
2021/07/09 07:59:47;;;;;;;6.40;4.95;;;20.60;99.90;;;;;;5069036;28;20251;-77
2021/07/09 08:02:12;;;;;;;9.10;5.32;;;21.60;99.90;;;;;;5064555;28;20020;-80
2021/07/09 08:04:38;;;;;;;8.77;5.88;;;20.90;99.90;;;;;;5073143;28;20024;-80
2021/07/09 08:07:05;;;;;;;9.68;5.65;;;20.90;99.90;;;;;;5072984;28;20498;-77
2021/07/09 08:09:31;;;;;;;9.15;4.93;;;21.00;99.90;;;;;;5070425;28;20036;-81
2021/07/09 08:11:58;;;;;;;8.35;6.00;;;21.00;99.90;;;;;;5068514;28;20039;-80
2021/07/09 08:14:24;;;;;;;10.98;5.57;;;21.20;99.90;;;;;;5072654;28;20036;-79
2021/07/09 08:16:52;;;;;;;8.95;5.85;;;21.30;99.90;;;;;;5073566;28;20024;-79
2021/07/09 08:19:20;;;;;;;8.13;5.70;;;21.80;99.90;;;;;;5069838;28;20029;-79
2021/07/09 08:21:46;;;;;;;10.38;5.65;;;21.50;99.30;;;;;;5074312;28;20020;-80
2021/07/09 08:24:13;;;;;;;7.70;4.88;;;21.60;99.30;;;;;;5070058;28;20020;-78
2021/07/09 08:26:39;;;;;;;10.60;5.82;;;21.80;99.00;;;;;;5078232;28;20027;-80
2021/07/09 08:29:05;;;;;;;11.70;5.90;;;;;;;;;;5071784;28;20028;-80
2021/07/09 08:31:30;;;;;;;8.65;5.75;;;22.00;98.40;;;;;;5074797;28;20032;-80
2021/07/09 08:33:56;;;;;;;11.65;7.07;;;22.20;98.20;;;;;;5071565;28;20032;-79
2021/07/09 08:36:24;;;;;;;11.85;6.10;;;;;;;;;;5089056;28;20047;-79
2021/07/09 08:38:51;;;;;;;9.75;5.65;;;22.40;97.70;;;;;;5073308;28;20191;-80
2021/07/09 08:41:17;;;;;;;9.65;5.43;;;;;;;;;;5069671;28;20029;-81
2021/07/09 08:43:43;;;;;;;7.78;5.68;;;;;;;;;;5076136;28;20058;-80
2021/07/09 08:46:09;;;;;;;8.55;5.45;;;;;;;;;;5068315;28;20032;-78
2021/07/09 08:48:37;;;;;;;7.78;6.32;;;22.30;97.00;;;;;;5074785;28;20089;-78
2021/07/09 08:51:03;;;;;;;11.40;6.40;;;22.30;97.20;;;;;;5072218;28;20025;-79
2021/07/09 08:53:29;;;;;;;9.38;5.63;;;22.40;97.50;;;;;;5084373;28;20466;-78
2021/07/09 08:55:56;;;;;;;8.35;5.93;;;;;;;;;;5067348;28;20028;-78
2021/07/09 08:58:22;;;;;;;10.18;6.00;;;;;;;;;;5068840;28;20032;-82
2021/07/09 09:00:48;;;;;;;8.95;6.53;;;;;;;;;;5063750;28;20035;-79
2021/07/09 09:03:14;;;;;;;8.52;5.85;;;22.50;97.60;;;;;;5062058;28;20033;-78
2021/07/09 09:05:41;;;;;;;8.70;6.18;;;22.60;97.50;;;;;;5066950;28;20059;-79
2021/07/09 09:08:08;;;;;;;9.63;5.78;;;22.70;97.30;;;;;;5068617;28;20040;-79
2021/07/09 09:10:39;;;;;;;11.23;5.95;;;22.80;97.00;;;;;;5069647;28;20036;-78
2021/07/09 09:13:05;;;;;;;10.05;6.13;;;;;;;;;;5067326;28;20036;-79
2021/07/09 09:15:31;;;;;;;7.07;5.35;;;;;;;;;;5067013;28;20174;-80
2021/07/09 09:17:57;;;;;;;8.50;5.70;;;;;;;;;;5071247;28;20040;-79
2021/07/09 09:20:28;;;;;;;8.18;5.18;;;22.90;96.60;;;;;;5063127;28;20433;-80
2021/07/09 09:22:56;;;;;;;7.90;5.90;;;23.00;95.80;;;;;;5067277;28;20028;-77
2021/07/09 09:25:24;;;;;;;10.57;5.35;;;23.00;95.80;;;;;;5069354;28;20504;-78
2021/07/09 09:28:03;;;;;;;8.70;5.30;;;23.00;96.00;;;;;;5066344;28;20063;-78
2021/07/09 09:30:30;;;;;;;9.88;6.78;;;23.40;95.90;;;;;;5061993;28;20056;-81
2021/07/09 09:32:56;;;;;;;7.88;5.80;;;23.30;95.10;;;;;;5067045;28;20091;-81
2021/07/09 09:35:26;;;;;;;8.70;5.97;;;23.30;95.40;;;;;;5069123;28;20391;-78
2021/07/09 09:38:13;;;;;;;9.55;6.57;;;23.40;95.10;;;;;;5061735;28;20115;-80
2021/07/09 09:40:41;;;;;;;9.07;6.63;;;23.60;93.90;;;;;;5066177;28;20027;-79
2021/07/09 09:43:10;;;;;;;10.50;6.07;;;23.80;94.00;;;;;;5059981;28;20024;-79
2021/07/09 09:45:37;;;;;;;8.68;6.45;;;23.70;94.10;;;;;;5066806;28;20542;-79
2021/07/09 09:48:05;;;;;;;9.85;5.97;;;23.70;94.10;;;;;;5061523;28;20047;-77
2021/07/09 09:50:39;;;;;;;9.80;5.95;;;23.70;94.30;;;;;;5062321;28;20016;-79
2021/07/09 09:53:05;;;;;;;8.65;5.43;;;23.80;94.20;;;;;;5062974;28;20081;-80
2021/07/09 09:55:34;;;;;;;8.18;5.38;;;23.80;92.80;;;;;;5065307;28;20131;-78
2021/07/09 09:58:13;;;;;;;8.15;5.38;;;23.80;92.80;;;;;;5063412;28;20052;-78
2021/07/09 10:00:41;;;;;;;6.05;4.60;;;24.10;93.20;;;;;;5071684;28;20162;-80
2021/07/09 10:03:08;;;;;;;6.57;4.72;;;24.20;93.10;;;;;;5059523;28;20032;-79
2021/07/09 10:05:45;;;;;;;8.88;5.07;;;23.80;92.80;;;;;;5064606;28;20033;-78
2021/07/09 10:08:14;;;;;;;7.55;5.00;;;23.70;93.20;;;;;;5060655;28;20055;-79
2021/07/09 10:10:41;;;;;;;8.00;5.15;;;23.50;93.70;;;;;;5066122;28;20048;-79
2021/07/09 10:13:09;;;;;;;8.55;5.65;;;23.40;94.10;;;;;;5073302;28;20020;-80
2021/07/09 10:15:36;;;;;;;7.70;5.65;;;23.30;94.30;;;;;;5072987;28;20142;-80
2021/07/09 10:18:02;;;;;;;6.38;4.75;;;23.20;94.60;;;;;;5067689;28;20094;-80
2021/07/09 10:20:28;;;;;;;8.27;5.68;;;;;;;;;;5068979;28;20033;-79
2021/07/09 10:22:57;;;;;;;9.10;5.65;;;23.20;94.50;;;;;;5070270;28;20024;-78
2021/07/09 10:25:24;;;;;;;7.28;5.18;;;23.20;94.60;;;;;;5070325;28;20030;-80
2021/07/09 10:27:50;;;;;;;9.05;5.93;;;;;;;;;;5069225;28;20039;-78
2021/07/09 10:30:17;;;;;;;8.55;6.10;;;;;;;;;;5070579;28;20028;-79
2021/07/09 10:32:49;;;;;;;8.73;5.43;;;23.60;94.30;;;;;;5073845;28;20031;-78
2021/07/09 10:35:43;;;;;;;9.30;5.20;;;23.60;94.50;;;;;;5072802;28;20112;-78
2021/07/09 10:38:10;;;;;;;8.32;5.13;;;23.80;93.50;;;;;;5078234;28;20169;-77
2021/07/09 10:40:37;;;;;;;7.00;4.45;;;;;;;;;;5055903;28;20629;-79
2021/07/09 10:43:04;;;;;;;5.32;4.38;;;24.30;92.20;;;;;;5072119;28;20486;-77
2021/07/09 10:45:31;;;;;;;5.80;4.68;;;;;;;;;;5073524;28;20033;-78
2021/07/09 10:48:03;;;;;;;7.15;4.10;;;;;;;;;;5071904;28;20051;-78
2021/07/09 10:50:41;;;;;;;4.97;3.85;;;24.30;91.60;;;;;;5060288;28;20431;-80
2021/07/09 10:53:10;;;;;;;5.35;4.07;;;24.20;91.70;;;;;;5067474;28;20135;-78
2021/07/09 10:55:39;;;;;;;6.15;4.18;;;;;;;;;;5072913;28;20029;-78
2021/07/09 10:58:07;;;;;;;5.95;3.92;;;23.80;91.00;;;;;;5071452;28;20033;-77
2021/07/09 11:00:53;;;;;;;6.50;4.18;;;23.60;91.90;;;;;;5067443;28;20028;-79
2021/07/09 11:03:38;;;;;;;5.78;3.58;;;23.40;91.70;;;;;;5074397;28;20021;-77
2021/07/09 11:06:04;;;;;;;5.55;4.22;;;;;;;;;;5063771;28;20029;-79
2021/07/09 11:08:33;;;;;;;7.57;4.47;;;;;;;;;;5071466;28;20051;-78
2021/07/09 11:10:59;;;;;;;5.75;4.15;;;;;;;;;;5070200;28;20032;-80
2021/07/09 11:13:40;;;;;;;6.13;4.57;;;23.20;92.20;;;;;;5074820;28;20032;-79
2021/07/09 11:16:25;;;;;;;6.82;4.07;;;23.20;92.00;;;;;;5072303;28;20027;-79
2021/07/09 11:19:02;;;;;;;6.18;4.00;;;23.90;92.30;;;;;;5065351;28;20070;-79
2021/07/09 11:21:33;;;;;;;6.05;4.00;;;23.30;92.30;;;;;;5065822;28;20025;-78
2021/07/09 11:24:06;;;;;;;7.15;4.25;;;23.90;92.80;;;;;;5072583;28;20020;-79
2021/07/09 11:26:42;;;;;;;6.88;4.65;;;23.60;92.30;;;;;;5068710;28;20025;-78
2021/07/09 11:29:26;;;;;;;6.53;4.10;;;23.60;92.20;;;;;;5070196;28;20024;-78
2021/07/09 11:32:00;;;;;;;6.97;3.97;;;23.50;92.20;;;;;;5071872;28;20057;-77
2021/07/09 11:34:32;;;;;;;5.40;4.18;;;23.50;92.50;;;;;;5074607;28;20029;-78
2021/07/09 11:37:12;;;;;;;5.43;3.47;;;23.50;91.70;;;;;;5072447;28;20029;-78
2021/07/09 11:39:43;;;;;;;7.30;3.60;;;23.60;91.10;;;;;;5074331;28;20156;-76
2021/07/09 11:42:15;;;;;;;5.05;3.55;;;23.80;90.80;;;;;;5077313;28;20028;-77
2021/07/09 11:44:45;;;;;;;4.95;3.63;;;24.20;90.30;;;;;;5065846;28;20346;-77
2021/07/09 11:47:16;;;;;;;6.00;4.43;;;24.10;90.50;;;;;;5068184;28;20040;-76
2021/07/09 11:49:45;;;;;;;5.07;3.70;;;24.50;90.30;;;;;;5071978;28;20514;-77
2021/07/09 11:52:12;;;;;;;5.57;3.63;;;24.40;90.30;;;;;;5071851;28;20055;-77
2021/07/09 11:54:40;;;;;;;5.60;3.40;;;24.30;90.40;;;;;;5069693;28;20032;-77
2021/07/09 11:57:11;;;;;;;5.13;3.72;;;24.20;90.60;;;;;;5070282;28;20039;-78
2021/07/09 11:59:38;;;;;;;5.90;4.00;;;24.20;90.40;;;;;;5074314;28;20052;-77
2021/07/09 12:02:05;;;;;;;6.10;3.75;;;24.30;90.10;;;;;;5075270;28;20025;-78
2021/07/09 12:04:38;;;;;;;6.15;4.00;;;24.20;90.00;;;;;;5070864;28;20115;-78
2021/07/09 12:07:14;;;;;;;5.68;3.90;;;24.20;89.50;;;;;;5073463;28;20032;-78
2021/07/09 12:09:41;;;;;;;5.53;3.90;;;;;;;;;;5064068;28;20231;-76
2021/07/09 12:12:06;;;;;;;5.47;3.90;;;24.20;88.90;;;;;;5069020;28;20398;-76
2021/07/09 12:14:32;;;;;;;6.53;4.13;;;;;;;;;;5065580;28;20033;-78
2021/07/09 12:16:59;;;;;;;5.07;3.67;;;;;;;;;;5071278;28;20111;-77
2021/07/09 12:19:25;;;;;;;5.53;3.35;;;;;;;;;;5073885;28;20016;-77
2021/07/09 12:21:54;;;;;;;8.07;4.85;;;24.90;86.00;;;;;;5071346;28;20040;-77
2021/07/09 12:24:21;;;;;;;5.17;3.40;;;24.70;86.30;;;;;;5073218;28;20025;-77
2021/07/09 12:26:48;;;;;;;5.05;3.20;;;24.60;85.60;;;;;;5068462;28;20278;-77
2021/07/09 12:29:14;;;;;;;6.40;3.03;;;24.60;85.80;;;;;;5071557;28;20066;-77
2021/07/09 12:31:41;;;;;;;5.57;4.05;;;24.70;86.90;;;;;;5067652;28;20028;-76
2021/07/09 12:34:22;;;;;;;5.93;3.53;;;24.80;82.80;;;;;;5067774;28;20029;-77
2021/07/09 12:36:48;;;;;;;5.95;3.13;;;;;;;;;;5069575;28;20409;-78
2021/07/09 12:39:22;;;;;;;5.13;3.08;;;25.10;83.00;;;;;;5071725;28;20032;-78
2021/07/09 12:41:53;;;;;;;4.72;3.17;;;25.30;83.20;;;;;;5068635;28;20052;-78
2021/07/09 12:44:20;;;;;;;5.45;3.33;;;;;;;;;;5062452;28;20206;-76
2021/07/09 12:46:46;;;;;;;5.18;3.38;;;25.30;83.10;;;;;;5071043;28;20028;-76
2021/07/09 12:49:13;;;;;;;6.78;3.25;;;;;;;;;;5070855;28;20024;-77
2021/07/09 12:51:42;;;;;;;4.63;2.80;;;25.30;81.00;;;;;;5068252;28;20033;-77
2021/07/09 12:54:09;;;;;;;4.30;2.70;;;;;;;;;;5063735;28;20482;-78
2021/07/09 12:56:48;;;;;;;6.25;2.72;;;25.50;77.40;;;;;;5060241;28;20032;-77
2021/07/09 12:59:19;;;;;;;;;;;25.50;77.80;;;;;;5066406;28;20112;-78
2021/07/09 13:01:46;;;;;;;8.73;4.07;;;25.70;77.40;;;;;;5063697;28;19952;-77
2021/07/09 13:04:26;;;;;;;3.28;2.17;;;25.60;77.20;;;;;;5061108;28;20029;-77
2021/07/09 13:07:09;;;;;;;3.55;2.13;;;25.60;74.70;;;;;;5061944;28;20032;-77
2021/07/09 13:09:36;;;;;;;2.88;1.92;;;;;;;;;;5058708;28;20506;-79
2021/07/09 13:12:12;;;;;;;3.47;2.05;;;25.90;71.20;;;;;;5059245;28;20144;-78
2021/07/09 13:14:54;;;;;;;2.80;1.90;;;25.90;71.60;;;;;;5061393;28;20111;-77
2021/07/09 13:17:22;;;;;;;3.63;2.38;;;26.10;70.80;;;;;;5059077;28;20060;-77
2021/07/09 13:20:00;;;;;;;2.65;2.15;;;26.20;72.00;;;;;;5057486;28;20036;-77